Time;durP1;ratioP1;P1;durP2;ratioP2;P2;SDS_P1;SDS_P2;PMS_P1;PMS_P2;Temp;Humidity;BMP_temperature;BMP_pressure;BME280_temperature;BME280_humidity;BME280_pressure;Samples;Min_cycle;Max_cycle;Signal;HPM_P1;HPM_P2
2020/12/08 00:00:08;;;;;;;35.58;20.80;;;1.60;99.90;;;;;;5032294;28;20079;-81
2020/12/08 00:02:33;;;;;;;31.83;19.03;;;1.60;99.90;;;;;;5012758;28;20033;-83
2020/12/08 00:04:59;;;;;;;32.75;18.95;;;1.60;99.90;;;;;;5008803;28;20054;-82
2020/12/08 00:07:25;;;;;;;31.17;19.00;;;1.60;99.90;;;;;;5047039;28;20075;-82
2020/12/08 00:09:51;;;;;;;35.80;20.13;;;1.60;99.90;;;;;;5049576;28;20025;-84
2020/12/08 00:12:16;;;;;;;33.03;19.60;;;1.70;99.90;;;;;;5032920;28;20095;-82
2020/12/08 00:14:45;;;;;;;29.98;19.35;;;1.60;99.90;;;;;;5029383;28;20390;-83
2020/12/08 00:17:11;;;;;;;28.42;18.17;;;1.70;99.90;;;;;;5028895;28;20044;-82
2020/12/08 00:19:36;;;;;;;29.70;18.42;;;1.70;99.90;;;;;;5029433;28;20033;-83
2020/12/08 00:22:02;;;;;;;31.95;18.45;;;1.70;99.90;;;;;;5030572;28;20035;-83
2020/12/08 00:24:28;;;;;;;32.60;18.33;;;1.70;99.90;;;;;;5030238;28;20026;-82
2020/12/08 00:26:53;;;;;;;37.17;20.08;;;1.70;99.90;;;;;;5022130;28;20467;-83
2020/12/08 00:29:19;;;;;;;32.85;20.30;;;1.70;99.90;;;;;;5009739;28;20038;-83
2020/12/08 00:31:44;;;;;;;30.90;19.27;;;1.70;99.90;;;;;;5014251;28;20033;-82
2020/12/08 00:34:10;;;;;;;31.08;18.48;;;1.60;99.90;;;;;;5029222;28;20034;-81
2020/12/08 00:36:36;;;;;;;30.60;18.23;;;1.60;99.90;;;;;;5026150;28;20116;-83
2020/12/08 00:39:01;;;;;;;27.48;18.00;;;1.50;99.90;;;;;;5009554;28;20029;-82
2020/12/08 00:41:27;;;;;;;29.52;18.05;;;1.60;99.90;;;;;;5010345;28;20033;-83
2020/12/08 00:43:53;;;;;;;30.67;18.17;;;1.60;99.90;;;;;;5009387;28;20030;-83
2020/12/08 00:46:19;;;;;;;31.58;19.55;;;1.60;99.90;;;;;;5009046;28;20084;-82
2020/12/08 00:48:46;;;;;;;28.45;18.17;;;1.60;99.90;;;;;;5027321;28;20034;-83
2020/12/08 00:51:12;;;;;;;31.02;19.90;;;1.60;99.90;;;;;;5029083;28;20033;-83
2020/12/08 00:53:38;;;;;;;29.35;19.08;;;1.70;99.90;;;;;;5028111;28;20029;-83
2020/12/08 00:56:13;;;;;;;27.83;18.60;;;1.60;99.90;;;;;;5028869;28;20085;-82
2020/12/08 00:58:39;;;;;;;25.80;18.63;;;1.60;99.90;;;;;;5030446;28;20033;-83
2020/12/08 01:01:05;;;;;;;26.08;17.58;;;1.60;99.90;;;;;;5029476;28;20547;-84
2020/12/08 01:03:34;;;;;;;27.42;18.08;;;1.60;99.90;;;;;;5032236;28;20099;-84
2020/12/08 01:06:01;;;;;;;29.10;19.27;;;1.60;99.90;;;;;;5033540;28;20030;-84
2020/12/08 01:08:27;;;;;;;27.50;18.23;;;1.60;99.90;;;;;;5033136;28;20088;-84
2020/12/08 01:10:53;;;;;;;28.13;18.50;;;1.60;99.90;;;;;;5032381;28;20044;-83
2020/12/08 01:13:20;;;;;;;28.50;18.83;;;1.50;99.90;;;;;;5032648;28;20561;-84
2020/12/08 01:15:46;;;;;;;27.85;19.08;;;1.50;99.90;;;;;;5032163;28;20053;-83
2020/12/08 01:18:12;;;;;;;25.92;17.27;;;1.60;99.90;;;;;;5032067;28;20029;-83
2020/12/08 01:20:38;;;;;;;29.38;17.85;;;1.50;99.90;;;;;;5032185;28;20520;-83
2020/12/08 01:23:04;;;;;;;29.42;20.63;;;1.50;99.90;;;;;;5031700;28;20037;-84
2020/12/08 01:25:31;;;;;;;35.30;20.52;;;1.50;99.90;;;;;;5033506;28;20835;-83
2020/12/08 01:27:57;;;;;;;33.42;20.05;;;1.30;99.90;;;;;;5031964;28;20313;-83
2020/12/08 01:30:23;;;;;;;30.13;19.50;;;1.30;99.90;;;;;;5014910;28;20038;-83
2020/12/08 01:32:48;;;;;;;31.25;19.80;;;1.30;99.90;;;;;;5013133;28;20033;-83
2020/12/08 01:35:17;;;;;;;36.90;22.13;;;1.30;99.90;;;;;;5029089;28;20104;-82
2020/12/08 01:37:43;;;;;;;33.65;20.88;;;1.30;99.90;;;;;;5032272;28;20168;-83
2020/12/08 01:40:09;;;;;;;37.15;20.83;;;1.30;99.90;;;;;;5031337;28;20049;-83
2020/12/08 01:42:35;;;;;;;33.03;20.27;;;1.30;99.90;;;;;;5031687;28;20041;-83
2020/12/08 01:45:00;;;;;;;35.15;19.90;;;1.20;99.90;;;;;;5031790;28;20025;-83
2020/12/08 01:47:27;;;;;;;29.05;18.98;;;1.20;99.90;;;;;;5031771;28;20071;-83
2020/12/08 01:49:53;;;;;;;31.88;20.83;;;1.00;99.90;;;;;;5031504;28;20032;-83
2020/12/08 01:52:20;;;;;;;31.88;20.00;;;1.10;99.90;;;;;;5032008;28;20033;-83
2020/12/08 01:54:48;;;;;;;28.55;19.00;;;1.10;99.90;;;;;;5031395;28;20060;-83
2020/12/08 01:57:14;;;;;;;27.23;17.75;;;1.20;99.90;;;;;;5032866;28;20037;-83
2020/12/08 01:59:39;;;;;;;33.80;20.63;;;1.10;99.90;;;;;;5031153;28;20901;-83
2020/12/08 02:02:05;;;;;;;32.13;20.52;;;1.10;99.90;;;;;;5031651;28;20041;-82
2020/12/08 02:04:31;;;;;;;26.60;18.00;;;1.00;99.90;;;;;;5030458;28;20091;-83
2020/12/08 02:06:57;;;;;;;35.20;20.73;;;1.00;99.90;;;;;;5031156;28;20115;-83
2020/12/08 02:09:22;;;;;;;34.92;20.73;;;1.00;99.90;;;;;;5031568;28;20072;-83
2020/12/08 02:11:48;;;;;;;34.90;21.20;;;1.10;99.90;;;;;;5013956;28;20038;-83
2020/12/08 02:14:14;;;;;;;31.23;20.25;;;1.10;99.90;;;;;;5010910;28;20554;-83
2020/12/08 02:16:40;;;;;;;31.30;19.63;;;1.10;99.90;;;;;;5026045;28;20040;-83
2020/12/08 02:19:05;;;;;;;32.50;19.88;;;1.10;99.90;;;;;;5032016;28;20033;-83
2020/12/08 02:21:33;;;;;;;35.60;21.27;;;1.10;99.90;;;;;;5018243;28;20473;-83
2020/12/08 02:24:00;;;;;;;33.42;20.88;;;1.00;99.90;;;;;;5011512;28;20034;-82
2020/12/08 02:26:25;;;;;;;30.38;21.40;;;1.00;99.90;;;;;;5020581;28;20065;-83
2020/12/08 02:28:52;;;;;;;31.05;19.60;;;1.00;99.90;;;;;;5030815;28;20107;-82
2020/12/08 02:31:18;;;;;;;31.15;20.33;;;1.00;99.90;;;;;;5023321;28;20034;-83
2020/12/08 02:33:44;;;;;;;30.92;21.15;;;1.00;99.90;;;;;;5011402;28;20393;-83
2020/12/08 02:36:10;;;;;;;28.50;20.48;;;1.00;99.90;;;;;;5011155;28;20780;-84
2020/12/08 02:38:35;;;;;;;30.80;19.42;;;0.90;99.90;;;;;;5012059;28;20096;-84
2020/12/08 02:41:02;;;;;;;26.23;17.70;;;0.90;99.90;;;;;;5012781;28;20754;-83
2020/12/08 02:43:28;;;;;;;27.98;18.75;;;0.90;99.90;;;;;;5032410;28;20141;-83
2020/12/08 02:45:54;;;;;;;28.42;19.85;;;0.70;99.90;;;;;;5032487;28;20122;-82
2020/12/08 02:48:19;;;;;;;31.05;20.85;;;0.70;99.90;;;;;;5031394;28;20033;-82
2020/12/08 02:50:45;;;;;;;34.85;23.50;;;0.70;99.90;;;;;;5030816;28;20128;-83
2020/12/08 02:53:11;;;;;;;31.55;21.55;;;0.70;99.90;;;;;;5030201;28;20608;-82
2020/12/08 02:55:36;;;;;;;29.77;20.35;;;0.80;99.90;;;;;;5032272;28;20045;-83
2020/12/08 02:58:02;;;;;;;30.73;20.70;;;0.80;99.90;;;;;;5021219;28;20054;-83
2020/12/08 03:00:28;;;;;;;34.53;23.98;;;0.80;99.90;;;;;;5011144;28;20042;-83
2020/12/08 03:02:54;;;;;;;34.65;24.90;;;0.90;99.90;;;;;;5020285;28;20025;-83
2020/12/08 03:05:19;;;;;;;40.33;27.33;;;0.80;99.90;;;;;;5034252;28;20045;-83
2020/12/08 03:07:45;;;;;;;41.03;29.45;;;0.80;99.90;;;;;;5051030;28;20032;-84
2020/12/08 03:10:13;;;;;;;36.25;26.15;;;0.80;99.90;;;;;;5034630;28;20612;-82
2020/12/08 03:12:39;;;;;;;37.42;26.05;;;0.70;99.90;;;;;;5032010;28;20075;-84
2020/12/08 03:15:05;;;;;;;31.73;21.85;;;0.70;99.90;;;;;;5014031;28;20041;-82
2020/12/08 03:17:31;;;;;;;27.85;17.38;;;0.60;99.90;;;;;;5031640;28;20025;-83
2020/12/08 03:19:57;;;;;;;24.08;16.65;;;0.60;99.90;;;;;;5031817;28;20422;-83
2020/12/08 03:22:23;;;;;;;26.65;14.77;;;0.60;99.90;;;;;;5033377;28;20064;-82
2020/12/08 03:24:49;;;;;;;21.33;12.80;;;0.60;99.90;;;;;;5016524;28;20037;-83
2020/12/08 03:27:16;;;;;;;22.63;14.63;;;0.60;99.90;;;;;;5013415;28;20056;-82
2020/12/08 03:29:42;;;;;;;20.92;12.45;;;0.60;99.90;;;;;;5044810;28;20860;-82
2020/12/08 03:32:08;;;;;;;17.95;11.50;;;0.60;99.90;;;;;;5017024;28;20445;-82
2020/12/08 03:34:34;;;;;;;17.25;10.45;;;0.50;99.90;;;;;;5039434;28;20034;-83
2020/12/08 03:37:00;;;;;;;14.27;9.30;;;0.60;99.90;;;;;;5012993;28;20402;-82
2020/12/08 03:39:25;;;;;;;22.52;14.60;;;0.60;99.90;;;;;;5022358;28;20726;-82
2020/12/08 03:41:51;;;;;;;22.17;14.60;;;0.50;99.90;;;;;;5033684;28;20478;-83
2020/12/08 03:44:16;;;;;;;19.98;12.80;;;0.60;99.90;;;;;;5026752;28;20124;-82
2020/12/08 03:46:42;;;;;;;24.38;14.13;;;0.60;99.90;;;;;;5030823;28;20410;-83
2020/12/08 03:49:08;;;;;;;19.33;13.10;;;0.60;99.90;;;;;;5016640;28;20028;-82
2020/12/08 03:51:33;;;;;;;18.42;12.38;;;0.60;99.90;;;;;;5051386;28;20025;-84
2020/12/08 03:53:59;;;;;;;24.80;14.15;;;0.70;99.90;;;;;;5032012;28;20480;-82
2020/12/08 03:56:25;;;;;;;19.77;12.43;;;0.60;99.90;;;;;;5050870;28;20033;-83
2020/12/08 03:58:50;;;;;;;21.40;12.93;;;0.60;99.90;;;;;;5033282;28;20032;-82
2020/12/08 04:01:18;;;;;;;22.17;12.70;;;0.60;99.90;;;;;;5032495;28;20033;-83
2020/12/08 04:03:46;;;;;;;20.05;12.48;;;0.60;99.90;;;;;;5029122;28;20053;-83
2020/12/08 04:06:12;;;;;;;18.90;11.73;;;0.60;99.90;;;;;;5029040;28;20056;-82
2020/12/08 04:08:42;;;;;;;21.13;12.18;;;0.60;99.90;;;;;;5031672;28;20492;-83
2020/12/08 04:11:08;;;;;;;19.25;12.30;;;0.60;99.90;;;;;;5015156;28;20042;-82
2020/12/08 04:13:34;;;;;;;18.83;11.38;;;0.60;99.90;;;;;;5010315;28;20026;-83
2020/12/08 04:16:00;;;;;;;24.58;14.68;;;0.60;99.90;;;;;;5009468;28;20423;-83
2020/12/08 04:18:26;;;;;;;17.55;11.77;;;0.50;99.90;;;;;;5010762;28;20029;-83
2020/12/08 04:20:52;;;;;;;18.40;10.70;;;0.50;99.90;;;;;;5017956;28;20060;-83
2020/12/08 04:23:18;;;;;;;18.08;12.02;;;0.50;99.90;;;;;;5029179;28;20048;-83
2020/12/08 04:25:45;;;;;;;18.33;11.95;;;0.40;99.90;;;;;;5029543;28;20029;-82
2020/12/08 04:28:11;;;;;;;20.35;12.88;;;0.40;99.90;;;;;;5030714;28;20049;-82
2020/12/08 04:30:37;;;;;;;19.20;12.10;;;0.40;99.90;;;;;;5030039;28;20831;-83
2020/12/08 04:33:04;;;;;;;19.83;11.98;;;0.40;99.90;;;;;;5028626;28;20021;-83
2020/12/08 04:35:30;;;;;;;19.15;11.45;;;0.40;99.90;;;;;;5027552;28;20072;-84
2020/12/08 04:37:56;;;;;;;22.45;13.02;;;0.40;99.90;;;;;;5029188;28;20781;-83
2020/12/08 04:40:22;;;;;;;18.88;11.95;;;0.30;99.90;;;;;;5029213;28;20037;-83
2020/12/08 04:42:49;;;;;;;22.75;14.10;;;0.20;99.90;;;;;;5028280;28;20056;-83
2020/12/08 04:45:16;;;;;;;23.60;14.95;;;0.30;99.90;;;;;;5029935;28;20240;-82
2020/12/08 04:47:45;;;;;;;23.30;14.18;;;0.30;99.90;;;;;;5029018;28;20117;-82
2020/12/08 04:50:16;;;;;;;19.77;12.77;;;0.20;99.90;;;;;;5028390;28;20096;-82
2020/12/08 04:52:42;;;;;;;23.92;13.55;;;0.20;99.90;;;;;;5024221;28;20022;-84
2020/12/08 04:55:08;;;;;;;21.20;14.23;;;0.20;99.90;;;;;;5019465;28;20369;-84
2020/12/08 04:57:38;;;;;;;21.60;15.18;;;0.20;99.90;;;;;;5027421;28;20029;-82
2020/12/08 05:00:06;;;;;;;21.70;14.32;;;0.10;99.90;;;;;;5023225;28;20038;-81
2020/12/08 05:02:32;;;;;;;22.13;14.13;;;0.10;99.90;;;;;;5030251;28;20029;-83
2020/12/08 05:04:57;;;;;;;21.70;13.15;;;0.10;99.90;;;;;;5027240;28;20441;-82
2020/12/08 05:07:27;;;;;;;22.08;15.48;;;0.10;99.90;;;;;;5029024;28;20125;-83
2020/12/08 05:09:54;;;;;;;20.75;12.82;;;0.10;99.90;;;;;;5028803;28;20040;-83
2020/12/08 05:12:23;;;;;;;14.63;9.45;;;0.10;99.90;;;;;;5028410;28;20037;-82
2020/12/08 05:14:50;;;;;;;20.95;12.90;;;-0.10;99.90;;;;;;5028924;28;20029;-83
2020/12/08 05:17:23;;;;;;;22.77;12.30;;;-0.10;99.90;;;;;;5027384;28;20034;-82
2020/12/08 05:20:00;;;;;;;17.23;10.65;;;-0.10;99.90;;;;;;5009227;28;20046;-83
2020/12/08 05:22:26;;;;;;;20.83;10.95;;;0.00;99.90;;;;;;5010063;28;20041;-83
2020/12/08 05:24:51;;;;;;;23.70;13.48;;;0.00;99.90;;;;;;5028272;28;20041;-83
2020/12/08 05:27:19;;;;;;;22.30;13.40;;;-0.10;99.90;;;;;;5030372;28;20108;-83
2020/12/08 05:29:44;;;;;;;19.73;12.73;;;0.00;99.90;;;;;;5027868;28;20033;-83
2020/12/08 05:32:29;;;;;;;21.85;13.65;;;0.00;99.90;;;;;;5027983;28;20088;-83
2020/12/08 05:34:56;;;;;;;18.92;12.00;;;0.00;99.90;;;;;;5028942;28;20113;-83
2020/12/08 05:37:22;;;;;;;20.52;12.05;;;0.00;99.90;;;;;;5028449;28;20076;-83
2020/12/08 05:39:49;;;;;;;18.30;11.63;;;-0.10;99.90;;;;;;5012183;28;20030;-82
2020/12/08 05:42:19;;;;;;;17.38;10.35;;;-0.10;99.90;;;;;;5008233;28;20061;-81
2020/12/08 05:44:50;;;;;;;17.35;9.85;;;0.00;99.90;;;;;;5021993;28;20367;-83
2020/12/08 05:47:17;;;;;;;17.70;11.27;;;0.00;99.90;;;;;;5028315;28;20039;-83
2020/12/08 05:49:43;;;;;;;16.55;10.73;;;-0.10;99.90;;;;;;5019469;28;20034;-83
2020/12/08 05:52:09;;;;;;;15.10;10.38;;;-0.10;99.90;;;;;;5012251;28;20030;-82
2020/12/08 05:54:34;;;;;;;20.92;11.35;;;0.00;99.90;;;;;;5022751;28;20713;-83
2020/12/08 05:57:14;;;;;;;22.20;12.93;;;-0.10;99.90;;;;;;5033409;28;20030;-83
2020/12/08 05:59:39;;;;;;;17.88;11.65;;;-0.10;99.90;;;;;;5031267;28;20041;-82
2020/12/08 06:02:05;;;;;;;19.42;13.18;;;-0.10;99.90;;;;;;5031797;28;20076;-82
2020/12/08 06:04:43;;;;;;;19.40;12.80;;;-0.20;99.90;;;;;;5048047;28;20128;-83
2020/12/08 06:07:12;;;;;;;23.08;13.18;;;-0.30;99.90;;;;;;5034156;28;20037;-84
2020/12/08 06:09:37;;;;;;;19.65;12.65;;;-0.30;99.90;;;;;;5027765;28;20024;-85
2020/12/08 06:12:14;;;;;;;23.80;13.75;;;-0.30;99.90;;;;;;5034052;28;20033;-81
2020/12/08 06:14:40;;;;;;;23.10;14.77;;;-0.30;99.90;;;;;;5035254;28;20036;-83
2020/12/08 06:17:07;;;;;;;23.20;13.63;;;-0.30;99.90;;;;;;5032655;28;20034;-83
2020/12/08 06:19:34;;;;;;;24.85;14.63;;;-0.30;99.90;;;;;;5032993;28;20059;-83
2020/12/08 06:22:09;;;;;;;22.45;12.25;;;-0.30;99.90;;;;;;5031061;28;20037;-84
2020/12/08 06:24:34;;;;;;;27.13;14.35;;;-0.40;99.90;;;;;;5035180;28;20036;-85
2020/12/08 06:27:00;;;;;;;25.90;16.48;;;-0.40;99.90;;;;;;5035640;28;20033;-82
2020/12/08 06:29:26;;;;;;;27.73;16.35;;;-0.40;99.90;;;;;;5027406;28;20033;-81
2020/12/08 06:31:52;;;;;;;34.50;20.58;;;-0.40;99.90;;;;;;5041179;28;20041;-80
2020/12/08 06:34:31;;;;;;;28.15;17.08;;;-0.40;99.90;;;;;;5025853;28;20025;-80
2020/12/08 06:37:10;;;;;;;31.42;18.42;;;-0.40;99.90;;;;;;5021083;28;20038;-83
2020/12/08 06:39:35;;;;;;;29.80;18.90;;;-0.40;99.90;;;;;;5048711;28;20029;-83
2020/12/08 06:42:14;;;;;;;28.55;16.17;;;-0.40;99.90;;;;;;5033455;28;20035;-83
2020/12/08 06:44:40;;;;;;;30.08;16.75;;;-0.40;99.90;;;;;;5024551;28;20510;-82
2020/12/08 06:47:06;;;;;;;25.45;15.00;;;-0.40;99.90;;;;;;5023048;28;20033;-80
2020/12/08 06:49:36;;;;;;;29.45;18.13;;;-0.40;99.90;;;;;;5034027;28;20025;-83
2020/12/08 06:52:03;;;;;;;26.27;16.13;;;-0.50;99.90;;;;;;5032251;28;20748;-80
2020/12/08 06:54:28;;;;;;;25.45;15.77;;;-0.50;99.90;;;;;;5046251;28;20354;-84
2020/12/08 06:57:01;;;;;;;32.17;18.52;;;-0.50;99.90;;;;;;5030121;28;20043;-80
2020/12/08 06:59:28;;;;;;;24.40;16.15;;;-0.50;99.90;;;;;;5021665;28;20033;-80
2020/12/08 07:01:55;;;;;;;25.25;15.52;;;-0.50;99.90;;;;;;5046791;28;20113;-83
2020/12/08 07:04:23;;;;;;;27.00;16.70;;;-0.50;99.90;;;;;;5029141;28;20071;-81
2020/12/08 07:06:49;;;;;;;26.45;17.58;;;-0.50;99.90;;;;;;5035360;28;20029;-84
2020/12/08 07:09:15;;;;;;;29.98;18.38;;;-0.50;99.90;;;;;;5029029;28;20041;-81
2020/12/08 07:11:41;;;;;;;34.22;20.05;;;-0.60;99.90;;;;;;5040100;28;20033;-82
2020/12/08 07:14:07;;;;;;;35.45;24.90;;;-0.50;99.90;;;;;;5020478;28;20037;-84
2020/12/08 07:16:34;;;;;;;38.05;24.95;;;-0.50;99.90;;;;;;5033725;28;20035;-81
2020/12/08 07:19:02;;;;;;;32.33;22.13;;;-0.70;99.90;;;;;;5033832;28;20572;-81
2020/12/08 07:21:28;;;;;;;35.35;22.38;;;-0.70;99.90;;;;;;5033977;28;20025;-84
2020/12/08 07:23:55;;;;;;;30.98;21.58;;;-0.60;99.90;;;;;;5025139;28;20580;-84
2020/12/08 07:26:29;;;;;;;48.08;29.25;;;-0.50;99.90;;;;;;5027620;28;20037;-83
2020/12/08 07:28:57;;;;;;;54.05;35.65;;;-0.50;99.90;;;;;;5034638;28;20047;-84
2020/12/08 07:31:30;;;;;;;44.70;28.25;;;-0.60;99.90;;;;;;5033604;28;20037;-84
2020/12/08 07:33:57;;;;;;;47.75;28.55;;;-0.60;99.90;;;;;;5033201;28;20374;-81
2020/12/08 07:36:31;;;;;;;53.38;30.95;;;-0.50;99.90;;;;;;5047946;28;20108;-84
2020/12/08 07:38:59;;;;;;;49.00;27.00;;;-0.50;99.90;;;;;;5033274;28;20040;-81
2020/12/08 07:41:26;;;;;;;47.90;28.67;;;-0.50;99.90;;;;;;5051975;28;20041;-83
2020/12/08 07:43:53;;;;;;;48.50;26.80;;;-0.50;99.90;;;;;;5033223;28;20128;-83
2020/12/08 07:46:29;;;;;;;46.53;28.70;;;-0.40;99.90;;;;;;5033778;28;20044;-80
2020/12/08 07:49:07;;;;;;;45.15;25.95;;;-0.40;99.90;;;;;;5031099;28;20815;-83
2020/12/08 07:51:34;;;;;;;41.88;24.85;;;-0.60;99.90;;;;;;5033589;28;20029;-84
2020/12/08 07:54:01;;;;;;;42.88;26.17;;;-0.50;99.90;;;;;;5033290;28;20445;-83
2020/12/08 07:56:28;;;;;;;58.28;29.45;;;-0.50;99.90;;;;;;5033584;28;20067;-80
2020/12/08 07:58:54;;;;;;;73.30;35.95;;;-0.30;99.90;;;;;;5051357;28;20075;-83
2020/12/08 08:01:20;;;;;;;55.58;28.15;;;-0.30;99.90;;;;;;5032832;28;20084;-83
2020/12/08 08:03:46;;;;;;;57.92;29.77;;;-0.20;99.90;;;;;;5032891;28;20447;-81
2020/12/08 08:06:17;;;;;;;53.55;28.23;;;-0.10;99.90;;;;;;5033222;28;20628;-83
2020/12/08 08:08:43;;;;;;;45.28;25.77;;;-0.20;99.90;;;;;;5019099;28;20036;-84
2020/12/08 08:11:09;;;;;;;44.58;25.58;;;-0.10;99.90;;;;;;5032332;28;20059;-83
2020/12/08 08:13:35;;;;;;;43.15;24.27;;;-0.20;99.90;;;;;;5030506;28;20029;-81
2020/12/08 08:16:00;;;;;;;48.45;27.80;;;-0.30;99.90;;;;;;5051563;28;20058;-82
2020/12/08 08:18:26;;;;;;;41.85;25.25;;;-0.20;99.90;;;;;;5032699;28;20746;-83
2020/12/08 08:20:52;;;;;;;40.05;22.85;;;-0.10;99.90;;;;;;5031900;28;20021;-81
2020/12/08 08:23:17;;;;;;;42.47;21.33;;;-0.10;99.90;;;;;;5032121;28;20040;-83
2020/12/08 08:25:43;;;;;;;42.00;22.02;;;0.00;99.90;;;;;;5031791;28;20036;-81
2020/12/08 08:28:08;;;;;;;37.47;21.40;;;-0.10;99.90;;;;;;5032183;28;20138;-80
2020/12/08 08:30:34;;;;;;;37.50;21.15;;;0.00;99.90;;;;;;5036563;28;20036;-81
2020/12/08 08:33:00;;;;;;;39.85;23.45;;;0.00;99.90;;;;;;5049014;28;20075;-83
2020/12/08 08:35:27;;;;;;;52.00;28.30;;;0.10;99.90;;;;;;5033171;28;20029;-81
2020/12/08 08:37:53;;;;;;;47.88;26.20;;;0.20;99.90;;;;;;5029532;28;20139;-83
2020/12/08 08:40:19;;;;;;;46.70;25.42;;;0.20;99.90;;;;;;5025648;28;20117;-84
2020/12/08 08:42:44;;;;;;;51.50;26.35;;;0.30;99.90;;;;;;5026056;28;20044;-81
2020/12/08 08:45:10;;;;;;;46.22;29.05;;;0.30;99.90;;;;;;5032408;28;20087;-80
2020/12/08 08:47:35;;;;;;;42.03;25.73;;;0.40;99.90;;;;;;5043156;28;20040;-81
2020/12/08 08:50:01;;;;;;;44.20;25.52;;;0.50;99.90;;;;;;5042724;28;20043;-83
2020/12/08 08:52:27;;;;;;;42.47;24.90;;;0.50;99.90;;;;;;5030712;28;20028;-83
2020/12/08 08:54:52;;;;;;;47.72;25.05;;;0.60;99.90;;;;;;5033275;28;20056;-83
2020/12/08 08:57:18;;;;;;;40.58;24.77;;;0.70;99.90;;;;;;5033220;28;20549;-80
2020/12/08 08:59:45;;;;;;;33.70;20.95;;;0.70;99.90;;;;;;5050907;28;20112;-83
2020/12/08 09:02:11;;;;;;;31.95;20.70;;;0.80;99.90;;;;;;5016534;28;20033;-83
2020/12/08 09:04:37;;;;;;;40.35;23.30;;;0.90;99.90;;;;;;5032410;28;20592;-84
2020/12/08 09:07:02;;;;;;;40.35;23.00;;;1.00;99.90;;;;;;5031705;28;20602;-84
2020/12/08 09:09:28;;;;;;;38.97;24.50;;;1.00;99.90;;;;;;5044408;28;20083;-81
2020/12/08 09:11:53;;;;;;;43.25;25.73;;;0.90;99.90;;;;;;5041507;28;20062;-81
2020/12/08 09:14:19;;;;;;;44.67;24.38;;;0.90;99.90;;;;;;5049409;28;20048;-81
2020/12/08 09:16:45;;;;;;;41.72;26.40;;;1.00;99.90;;;;;;5032663;28;20021;-84
2020/12/08 09:19:11;;;;;;;39.53;24.88;;;1.00;99.90;;;;;;5032356;28;20534;-83
2020/12/08 09:21:36;;;;;;;41.65;25.48;;;1.10;99.90;;;;;;5032179;28;20485;-80
2020/12/08 09:24:02;;;;;;;40.80;25.50;;;1.00;99.90;;;;;;5036642;28;20075;-83
2020/12/08 09:26:28;;;;;;;44.20;26.75;;;1.00;99.90;;;;;;5036858;28;20025;-83
2020/12/08 09:28:53;;;;;;;43.47;30.02;;;1.00;99.90;;;;;;5035416;28;20123;-83
2020/12/08 09:31:19;;;;;;;46.45;28.50;;;1.00;99.90;;;;;;5034663;28;20075;-82
2020/12/08 09:33:46;;;;;;;44.38;25.58;;;1.00;99.90;;;;;;5032892;28;20032;-83
2020/12/08 09:36:12;;;;;;;41.03;22.95;;;0.90;99.90;;;;;;5035638;28;20092;-81
2020/12/08 09:38:38;;;;;;;44.72;23.73;;;0.90;99.90;;;;;;5053877;28;20109;-83
2020/12/08 09:41:04;;;;;;;34.70;22.27;;;0.90;99.90;;;;;;5033880;28;20119;-81
2020/12/08 09:43:29;;;;;;;44.92;22.75;;;0.90;99.90;;;;;;5036443;28;20129;-83
2020/12/08 09:45:55;;;;;;;39.45;22.90;;;0.90;99.90;;;;;;5029481;28;20069;-83
2020/12/08 09:48:21;;;;;;;76.63;43.88;;;0.90;99.90;;;;;;5028314;28;20040;-81
2020/12/08 09:50:47;;;;;;;61.28;35.38;;;0.90;99.90;;;;;;5039129;28;20021;-83
2020/12/08 09:53:12;;;;;;;45.88;27.58;;;0.90;99.90;;;;;;5036183;28;20029;-83
2020/12/08 09:55:38;;;;;;;46.85;25.85;;;0.90;99.90;;;;;;5035840;28;20409;-81
2020/12/08 09:58:04;;;;;;;35.17;22.50;;;1.00;99.90;;;;;;5052581;28;20071;-80
2020/12/08 10:00:29;;;;;;;45.67;28.23;;;1.00;99.90;;;;;;5035363;28;20131;-83
2020/12/08 10:02:55;;;;;;;41.22;24.67;;;1.00;99.90;;;;;;5021411;28;20034;-81
2020/12/08 10:05:20;;;;;;;45.63;27.50;;;1.10;99.90;;;;;;5053612;28;20037;-81
2020/12/08 10:07:46;;;;;;;53.28;28.88;;;1.10;99.90;;;;;;5052388;28;20033;-81
2020/12/08 10:10:12;;;;;;;59.80;31.17;;;1.20;99.90;;;;;;5053247;28;20025;-80
2020/12/08 10:12:37;;;;;;;81.47;31.95;;;1.20;99.90;;;;;;5035657;28;20017;-83
2020/12/08 10:15:04;;;;;;;79.43;33.00;;;1.30;99.90;;;;;;5044530;28;20033;-81
2020/12/08 10:17:29;;;;;;;63.40;28.70;;;1.40;99.90;;;;;;5043159;28;20021;-83
2020/12/08 10:19:55;;;;;;;54.45;25.73;;;1.50;99.90;;;;;;5034847;28;20119;-80
2020/12/08 10:22:20;;;;;;;29.83;18.08;;;1.70;99.90;;;;;;5053119;28;20029;-83
2020/12/08 10:24:46;;;;;;;24.88;16.30;;;1.70;99.90;;;;;;5034816;28;20037;-80
2020/12/08 10:27:12;;;;;;;30.35;16.52;;;1.80;99.90;;;;;;5037571;28;20033;-80
2020/12/08 10:29:37;;;;;;;24.35;13.80;;;1.90;99.90;;;;;;5043395;28;20033;-80
2020/12/08 10:32:03;;;;;;;24.42;14.52;;;1.90;99.90;;;;;;5049949;28;20032;-82
2020/12/08 10:34:29;;;;;;;24.75;16.33;;;2.00;99.90;;;;;;5021367;28;20502;-84
2020/12/08 10:36:54;;;;;;;22.25;14.45;;;2.10;99.90;;;;;;5034371;28;20033;-81
2020/12/08 10:39:20;;;;;;;22.73;13.73;;;2.20;99.90;;;;;;5052988;28;20159;-82
2020/12/08 10:41:46;;;;;;;20.90;11.88;;;2.30;99.90;;;;;;5023845;28;20029;-83
2020/12/08 10:44:14;;;;;;;22.77;11.93;;;2.40;99.90;;;;;;5051195;28;20045;-81
2020/12/08 10:46:40;;;;;;;22.85;11.75;;;2.60;99.90;;;;;;5062988;28;20071;-81
2020/12/08 10:49:06;;;;;;;23.30;12.93;;;2.70;99.90;;;;;;5033824;28;20103;-83
2020/12/08 10:51:32;;;;;;;18.23;8.77;;;2.60;99.90;;;;;;5031882;28;20035;-82
2020/12/08 10:53:58;;;;;;;19.25;9.20;;;2.70;99.90;;;;;;5052240;28;20029;-81
2020/12/08 10:56:24;;;;;;;16.48;8.40;;;2.70;99.90;;;;;;5034325;28;20474;-82
2020/12/08 10:58:51;;;;;;;18.33;9.70;;;2.80;99.90;;;;;;5052008;28;20044;-81
2020/12/08 11:01:21;;;;;;;21.48;10.77;;;2.90;99.90;;;;;;5033507;28;20497;-81
2020/12/08 11:03:47;;;;;;;19.55;10.25;;;2.90;99.90;;;;;;5022322;28;20120;-83
2020/12/08 11:06:21;;;;;;;18.88;10.38;;;2.80;99.90;;;;;;5025161;28;20045;-82
2020/12/08 11:08:48;;;;;;;23.17;12.20;;;2.80;99.90;;;;;;5017348;28;20033;-81
2020/12/08 11:11:20;;;;;;;27.55;15.15;;;3.00;99.90;;;;;;5022548;28;20382;-81
2020/12/08 11:13:45;;;;;;;22.45;12.00;;;3.10;99.90;;;;;;5029560;28;20030;-81
2020/12/08 11:16:11;;;;;;;17.05;8.68;;;3.30;99.90;;;;;;5030971;28;20057;-83
2020/12/08 11:18:37;;;;;;;14.10;8.13;;;3.30;99.90;;;;;;5030211;28;20394;-83
2020/12/08 11:21:02;;;;;;;14.23;8.85;;;3.40;99.90;;;;;;5029840;28;20061;-81
2020/12/08 11:23:28;;;;;;;15.07;8.45;;;3.50;99.90;;;;;;5031883;28;20080;-81
2020/12/08 11:25:53;;;;;;;13.82;8.70;;;3.50;99.90;;;;;;5030970;28;20103;-84
2020/12/08 11:28:19;;;;;;;17.25;9.48;;;3.60;99.90;;;;;;5031814;28;20033;-81
2020/12/08 11:30:45;;;;;;;14.18;8.77;;;3.50;99.90;;;;;;5028732;28;20026;-83
2020/12/08 11:33:10;;;;;;;16.23;8.60;;;3.50;99.90;;;;;;5020154;28;20092;-81
2020/12/08 11:35:36;;;;;;;14.68;7.50;;;3.50;99.90;;;;;;5025633;28;20867;-83
2020/12/08 11:38:02;;;;;;;16.17;8.50;;;3.60;99.90;;;;;;5030526;28;20037;-83
2020/12/08 11:40:27;;;;;;;15.13;8.90;;;3.50;99.90;;;;;;5029211;28;20030;-81
2020/12/08 11:42:53;;;;;;;14.43;7.43;;;3.50;99.90;;;;;;5031467;28;20022;-81
2020/12/08 11:45:18;;;;;;;14.70;7.57;;;3.50;99.90;;;;;;5027505;28;20112;-80
2020/12/08 11:47:44;;;;;;;15.23;10.32;;;3.50;99.90;;;;;;5024143;28;20033;-81
2020/12/08 11:50:10;;;;;;;19.42;10.57;;;3.50;99.90;;;;;;5030169;28;20039;-84
2020/12/08 11:52:36;;;;;;;17.40;10.68;;;3.50;99.90;;;;;;5017318;28;20104;-81
2020/12/08 11:55:06;;;;;;;19.15;12.05;;;3.60;99.90;;;;;;5031601;28;20034;-81
2020/12/08 11:57:32;;;;;;;14.98;11.10;;;3.60;99.90;;;;;;5016905;28;20867;-81
2020/12/08 11:59:58;;;;;;;17.38;10.90;;;3.60;99.90;;;;;;5023526;28;20099;-83
2020/12/08 12:02:23;;;;;;;16.70;11.10;;;3.60;99.90;;;;;;5017049;28;20046;-81
2020/12/08 12:04:49;;;;;;;17.73;11.63;;;3.50;99.90;;;;;;5047003;28;20052;-84
2020/12/08 12:07:14;;;;;;;20.85;11.93;;;3.50;99.90;;;;;;5032905;28;20065;-81
2020/12/08 12:09:40;;;;;;;17.70;11.48;;;3.60;99.90;;;;;;5051106;28;20029;-82
2020/12/08 12:12:06;;;;;;;17.05;12.07;;;3.60;99.90;;;;;;5050096;28;20033;-81
2020/12/08 12:14:31;;;;;;;19.02;12.68;;;3.60;99.90;;;;;;5047422;28;20032;-81
2020/12/08 12:16:57;;;;;;;19.65;11.60;;;3.60;99.90;;;;;;5049948;28;20033;-84
2020/12/08 12:19:23;;;;;;;16.98;10.45;;;3.60;99.90;;;;;;5032806;28;20029;-84
2020/12/08 12:21:49;;;;;;;20.50;10.68;;;3.60;99.90;;;;;;5032048;28;20035;-84
2020/12/08 12:24:14;;;;;;;23.17;13.38;;;3.70;99.90;;;;;;5026383;28;20447;-81
2020/12/08 12:26:40;;;;;;;21.38;13.32;;;3.70;99.90;;;;;;5049623;28;20037;-81
2020/12/08 12:29:06;;;;;;;22.08;14.50;;;3.70;99.90;;;;;;5041989;28;20119;-80
2020/12/08 12:31:32;;;;;;;22.35;13.35;;;3.70;99.90;;;;;;5055872;28;20097;-81